sensor_id;sensor_type;location;lat;lon;timestamp;pressure;altitude;pressure_sealevel;temperature;humidity
23241;BME280;11789;53.482;9.862;2023-04-07T00:01:42;101842.69;;;4.79;60.24
23241;BME280;11789;53.482;9.862;2023-04-07T00:04:08;101837.34;;;4.73;60.51
23241;BME280;11789;53.482;9.862;2023-04-07T00:06:33;101848.31;;;4.71;60.79
23241;BME280;11789;53.482;9.862;2023-04-07T00:08:59;101844.84;;;4.68;60.94
23241;BME280;11789;53.482;9.862;2023-04-07T00:11:24;101841.34;;;4.66;60.97
23241;BME280;11789;53.482;9.862;2023-04-07T00:13:50;101841.34;;;4.66;61.09
23241;BME280;11789;53.482;9.862;2023-04-07T00:16:15;101838.62;;;4.62;61.40
23241;BME280;11789;53.482;9.862;2023-04-07T00:18:41;101841.72;;;4.55;61.68
23241;BME280;11789;53.482;9.862;2023-04-07T00:21:07;101840.03;;;4.55;61.73
23241;BME280;11789;53.482;9.862;2023-04-07T00:23:32;101841.81;;;4.56;61.74
23241;BME280;11789;53.482;9.862;2023-04-07T00:25:58;101831.47;;;4.55;61.92
23241;BME280;11789;53.482;9.862;2023-04-07T00:28:23;101842.41;;;4.51;62.13
23241;BME280;11789;53.482;9.862;2023-04-07T00:30:49;101832.75;;;4.43;62.55
23241;BME280;11789;53.482;9.862;2023-04-07T00:33:14;101835.12;;;4.39;62.73
23241;BME280;11789;53.482;9.862;2023-04-07T00:35:40;101833.53;;;4.41;62.81
23241;BME280;11789;53.482;9.862;2023-04-07T00:38:05;101835.09;;;4.37;63.08
23241;BME280;11789;53.482;9.862;2023-04-07T00:40:30;101829.78;;;4.33;63.25
23241;BME280;11789;53.482;9.862;2023-04-07T00:42:56;101837.41;;;4.31;63.44
23241;BME280;11789;53.482;9.862;2023-04-07T00:45:21;101837.31;;;4.30;63.53
23241;BME280;11789;53.482;9.862;2023-04-07T00:47:47;101844.03;;;4.26;63.67
23241;BME280;11789;53.482;9.862;2023-04-07T00:50:12;101845.56;;;4.23;63.85
23241;BME280;11789;53.482;9.862;2023-04-07T00:52:38;101842.88;;;4.20;64.04
23241;BME280;11789;53.482;9.862;2023-04-07T00:55:04;101841.19;;;4.20;64.08
23241;BME280;11789;53.482;9.862;2023-04-07T00:57:30;101833.47;;;4.19;64.30
23241;BME280;11789;53.482;9.862;2023-04-07T00:59:56;101840.13;;;4.15;64.44
23241;BME280;11789;53.482;9.862;2023-04-07T01:05:15;101843.41;;;4.11;64.77
23241;BME280;11789;53.482;9.862;2023-04-07T01:10:51;101834.47;;;4.01;65.43
23241;BME280;11789;53.482;9.862;2023-04-07T01:13:42;101828.38;;;3.99;65.36
23241;BME280;11789;53.482;9.862;2023-04-07T01:16:12;101832.63;;;3.99;65.54
23241;BME280;11789;53.482;9.862;2023-04-07T01:18:41;101834.31;;;3.98;65.54
23241;BME280;11789;53.482;9.862;2023-04-07T01:21:10;101827.28;;;3.93;65.83
23241;BME280;11789;53.482;9.862;2023-04-07T01:23:50;101825.44;;;3.90;65.84
23241;BME280;11789;53.482;9.862;2023-04-07T01:26:17;101830.41;;;3.85;65.99
23241;BME280;11789;53.482;9.862;2023-04-07T01:31:29;101834.50;;;3.82;66.37
23241;BME280;11789;53.482;9.862;2023-04-07T01:33:56;101824.28;;;3.82;66.43
23241;BME280;11789;53.482;9.862;2023-04-07T01:36:25;101840.34;;;3.79;66.48
23241;BME280;11789;53.482;9.862;2023-04-07T01:38:53;101829.84;;;3.73;66.92
23241;BME280;11789;53.482;9.862;2023-04-07T01:41:20;101833.22;;;3.72;67.14
23241;BME280;11789;53.482;9.862;2023-04-07T01:43:47;101834.88;;;3.70;67.12
23241;BME280;11789;53.482;9.862;2023-04-07T01:49:24;101843.22;;;3.66;67.38
23241;BME280;11789;53.482;9.862;2023-04-07T01:51:51;101849.91;;;3.64;67.51
23241;BME280;11789;53.482;9.862;2023-04-07T01:54:18;101839.56;;;3.61;67.58
23241;BME280;11789;53.482;9.862;2023-04-07T01:56:44;101836.75;;;3.55;67.88
23241;BME280;11789;53.482;9.862;2023-04-07T01:59:10;101843.41;;;3.51;68.03
23241;BME280;11789;53.482;9.862;2023-04-07T02:01:36;101840.81;;;3.50;68.15
23241;BME280;11789;53.482;9.862;2023-04-07T02:06:57;101849.12;;;3.46;68.34
23241;BME280;11789;53.482;9.862;2023-04-07T02:09:26;101852.22;;;3.38;68.59
23241;BME280;11789;53.482;9.862;2023-04-07T02:11:56;101849.06;;;3.44;68.33
23241;BME280;11789;53.482;9.862;2023-04-07T02:14:23;101851.41;;;3.39;68.51
23241;BME280;11789;53.482;9.862;2023-04-07T02:16:49;101844.53;;;3.38;68.51
23241;BME280;11789;53.482;9.862;2023-04-07T02:19:16;101843.47;;;3.33;68.87
23241;BME280;11789;53.482;9.862;2023-04-07T02:21:43;101854.50;;;3.32;68.85
23241;BME280;11789;53.482;9.862;2023-04-07T02:24:11;101842.59;;;3.33;68.78
23241;BME280;11789;53.482;9.862;2023-04-07T02:26:37;101847.59;;;3.30;68.85
23241;BME280;11789;53.482;9.862;2023-04-07T02:29:03;101846.69;;;3.29;68.97
23241;BME280;11789;53.482;9.862;2023-04-07T02:31:29;101850.87;;;3.27;69.03
23241;BME280;11789;53.482;9.862;2023-04-07T02:33:54;101845.09;;;3.31;68.66
23241;BME280;11789;53.482;9.862;2023-04-07T02:36:20;101850.94;;;3.29;68.70
23241;BME280;11789;53.482;9.862;2023-04-07T02:38:46;101843.97;;;3.25;68.89
23241;BME280;11789;53.482;9.862;2023-04-07T02:41:11;101851.41;;;3.20;69.10
23241;BME280;11789;53.482;9.862;2023-04-07T02:43:37;101857.47;;;3.22;68.81
23241;BME280;11789;53.482;9.862;2023-04-07T02:46:02;101860.75;;;3.20;68.90
23241;BME280;11789;53.482;9.862;2023-04-07T02:48:27;101868.44;;;3.20;68.61
23241;BME280;11789;53.482;9.862;2023-04-07T02:50:53;101862.56;;;3.22;68.49
23241;BME280;11789;53.482;9.862;2023-04-07T02:53:18;101861.75;;;3.23;68.29
23241;BME280;11789;53.482;9.862;2023-04-07T02:55:44;101856.53;;;3.20;68.33
23241;BME280;11789;53.482;9.862;2023-04-07T02:58:10;101858.13;;;3.18;68.28
23241;BME280;11789;53.482;9.862;2023-04-07T03:00:35;101859.75;;;3.16;68.31
23241;BME280;11789;53.482;9.862;2023-04-07T03:03:01;101861.31;;;3.14;68.34
23241;BME280;11789;53.482;9.862;2023-04-07T03:05:26;101858.13;;;3.18;67.87
23241;BME280;11789;53.482;9.862;2023-04-07T03:07:52;101858.00;;;3.15;68.05
23241;BME280;11789;53.482;9.862;2023-04-07T03:10:17;101863.87;;;3.14;68.05
23241;BME280;11789;53.482;9.862;2023-04-07T03:12:43;101866.16;;;3.08;68.14
23241;BME280;11789;53.482;9.862;2023-04-07T03:15:09;101877.34;;;3.10;68.08
23241;BME280;11789;53.482;9.862;2023-04-07T03:17:34;101878.00;;;3.06;68.25
23241;BME280;11789;53.482;9.862;2023-04-07T03:20:00;101870.28;;;3.04;68.17
23241;BME280;11789;53.482;9.862;2023-04-07T03:22:26;101878.81;;;3.05;68.13
23241;BME280;11789;53.482;9.862;2023-04-07T03:24:51;101872.75;;;3.03;68.02
23241;BME280;11789;53.482;9.862;2023-04-07T03:27:17;101876.12;;;3.02;68.16
23241;BME280;11789;53.482;9.862;2023-04-07T03:29:42;101875.09;;;2.98;68.17
23241;BME280;11789;53.482;9.862;2023-04-07T03:32:08;101874.97;;;2.95;68.37
23241;BME280;11789;53.482;9.862;2023-04-07T03:34:33;101878.34;;;2.94;68.48
23241;BME280;11789;53.482;9.862;2023-04-07T03:36:59;101876.34;;;2.89;68.74
23241;BME280;11789;53.482;9.862;2023-04-07T03:39:24;101881.44;;;2.89;68.58
23241;BME280;11789;53.482;9.862;2023-04-07T03:41:50;101874.37;;;2.83;68.80
23241;BME280;11789;53.482;9.862;2023-04-07T03:44:16;101875.41;;;2.86;68.71
23241;BME280;11789;53.482;9.862;2023-04-07T03:46:41;101878.53;;;2.81;68.99
23241;BME280;11789;53.482;9.862;2023-04-07T03:49:07;101879.19;;;2.77;69.15
23241;BME280;11789;53.482;9.862;2023-04-07T03:51:32;101875.78;;;2.76;69.10
23241;BME280;11789;53.482;9.862;2023-04-07T03:53:58;101875.78;;;2.76;68.95
23241;BME280;11789;53.482;9.862;2023-04-07T03:56:24;101886.81;;;2.75;68.92
23241;BME280;11789;53.482;9.862;2023-04-07T03:58:50;101890.22;;;2.76;68.81
23241;BME280;11789;53.482;9.862;2023-04-07T04:01:15;101887.44;;;2.71;68.87
23241;BME280;11789;53.482;9.862;2023-04-07T04:03:41;101891.09;;;2.76;68.61
23241;BME280;11789;53.482;9.862;2023-04-07T04:06:06;101902.13;;;2.75;68.57
23241;BME280;11789;53.482;9.862;2023-04-07T04:08:32;101890.22;;;2.76;68.36
23241;BME280;11789;53.482;9.862;2023-04-07T04:10:58;101891.75;;;2.72;68.43
23241;BME280;11789;53.482;9.862;2023-04-07T04:13:23;101907.16;;;2.74;68.59
23241;BME280;11789;53.482;9.862;2023-04-07T04:15:49;101901.91;;;2.71;68.75
23241;BME280;11789;53.482;9.862;2023-04-07T04:18:14;101895.84;;;2.69;68.77
23241;BME280;11789;53.482;9.862;2023-04-07T04:20:40;101911.00;;;2.66;68.98
23241;BME280;11789;53.482;9.862;2023-04-07T04:23:05;101908.31;;;2.63;68.99
23241;BME280;11789;53.482;9.862;2023-04-07T04:25:31;101912.69;;;2.65;68.85
23241;BME280;11789;53.482;9.862;2023-04-07T04:27:56;101916.72;;;2.60;69.23
23241;BME280;11789;53.482;9.862;2023-04-07T04:30:22;101913.19;;;2.58;69.11
23241;BME280;11789;53.482;9.862;2023-04-07T04:32:47;101919.91;;;2.56;69.14
23241;BME280;11789;53.482;9.862;2023-04-07T04:35:13;101923.16;;;2.53;69.30
23241;BME280;11789;53.482;9.862;2023-04-07T04:37:39;101917.87;;;2.49;69.58
23241;BME280;11789;53.482;9.862;2023-04-07T04:40:05;101925.53;;;2.49;69.47
23241;BME280;11789;53.482;9.862;2023-04-07T04:42:33;101926.47;;;2.51;69.46
23241;BME280;11789;53.482;9.862;2023-04-07T04:44:58;101921.34;;;2.51;69.70
23241;BME280;11789;53.482;9.862;2023-04-07T04:47:24;101926.28;;;2.48;69.84
23241;BME280;11789;53.482;9.862;2023-04-07T04:49:50;101926.28;;;2.48;69.87
23241;BME280;11789;53.482;9.862;2023-04-07T04:52:15;101928.63;;;2.43;70.09
23241;BME280;11789;53.482;9.862;2023-04-07T04:54:41;101934.53;;;2.42;70.41
23241;BME280;11789;53.482;9.862;2023-04-07T04:57:06;101934.63;;;2.44;70.29
23241;BME280;11789;53.482;9.862;2023-04-07T04:59:32;101935.41;;;2.43;70.35
23241;BME280;11789;53.482;9.862;2023-04-07T05:01:58;101937.03;;;2.41;70.88
23241;BME280;11789;53.482;9.862;2023-04-07T05:04:23;101945.97;;;2.32;71.34
23241;BME280;11789;53.482;9.862;2023-04-07T05:06:49;101945.03;;;2.30;71.62
23241;BME280;11789;53.482;9.862;2023-04-07T05:09:15;101950.94;;;2.29;71.81
23241;BME280;11789;53.482;9.862;2023-04-07T05:11:41;101947.63;;;2.32;72.04
23241;BME280;11789;53.482;9.862;2023-04-07T05:14:07;101956.97;;;2.31;71.86
23241;BME280;11789;53.482;9.862;2023-04-07T05:16:32;101954.81;;;2.39;71.27
23241;BME280;11789;53.482;9.862;2023-04-07T05:18:58;101961.59;;;2.39;71.47
23241;BME280;11789;53.482;9.862;2023-04-07T05:21:23;101960.00;;;2.41;71.34
23241;BME280;11789;53.482;9.862;2023-04-07T05:23:48;101961.97;;;2.46;70.81
23241;BME280;11789;53.482;9.862;2023-04-07T05:26:14;101962.03;;;2.48;70.61
23241;BME280;11789;53.482;9.862;2023-04-07T05:28:39;101964.97;;;2.55;70.09
23241;BME280;11789;53.482;9.862;2023-04-07T05:31:05;101968.87;;;2.65;69.36
23241;BME280;11789;53.482;9.862;2023-04-07T05:33:30;101976.81;;;2.71;68.98
23241;BME280;11789;53.482;9.862;2023-04-07T05:35:56;101972.00;;;2.77;68.41
23241;BME280;11789;53.482;9.862;2023-04-07T05:38:21;101976.53;;;2.83;68.47
23241;BME280;11789;53.482;9.862;2023-04-07T05:40:47;101981.06;;;2.89;68.37
23241;BME280;11789;53.482;9.862;2023-04-07T05:43:13;101976.25;;;2.95;68.12
23241;BME280;11789;53.482;9.862;2023-04-07T05:45:38;101983.25;;;2.99;67.92
23241;BME280;11789;53.482;9.862;2023-04-07T05:48:04;101991.22;;;3.05;67.62
23241;BME280;11789;53.482;9.862;2023-04-07T05:50:30;101990.53;;;3.09;67.23
23241;BME280;11789;53.482;9.862;2023-04-07T05:52:55;101997.78;;;3.18;67.05
23241;BME280;11789;53.482;9.862;2023-04-07T05:55:21;101985.50;;;3.28;66.88
23241;BME280;11789;53.482;9.862;2023-04-07T05:57:47;101987.62;;;3.37;66.12
23241;BME280;11789;53.482;9.862;2023-04-07T06:00:14;101993.00;;;3.43;65.92
23241;BME280;11789;53.482;9.862;2023-04-07T06:02:40;101996.81;;;3.51;65.71
23241;BME280;11789;53.482;9.862;2023-04-07T06:05:06;101998.09;;;3.61;65.47
23241;BME280;11789;53.482;9.862;2023-04-07T06:07:31;101995.97;;;3.70;64.99
23241;BME280;11789;53.482;9.862;2023-04-07T06:09:57;102002.97;;;3.74;64.34
23241;BME280;11789;53.482;9.862;2023-04-07T06:12:22;101995.66;;;3.82;64.21
23241;BME280;11789;53.482;9.862;2023-04-07T06:14:54;101997.00;;;3.93;63.52
23241;BME280;11789;53.482;9.862;2023-04-07T06:17:21;101997.25;;;3.99;63.08
23241;BME280;11789;53.482;9.862;2023-04-07T06:19:46;102001.66;;;4.02;62.73
23241;BME280;11789;53.482;9.862;2023-04-07T06:22:12;102006.16;;;4.07;62.59
23241;BME280;11789;53.482;9.862;2023-04-07T06:24:37;102015.94;;;4.16;62.38
23241;BME280;11789;53.482;9.862;2023-04-07T06:27:03;102012.56;;;4.17;61.92
23241;BME280;11789;53.482;9.862;2023-04-07T06:29:32;102011.12;;;4.24;61.22
23241;BME280;11789;53.482;9.862;2023-04-07T06:31:58;102017.31;;;4.29;61.15
23241;BME280;11789;53.482;9.862;2023-04-07T06:34:24;102024.47;;;4.36;60.79
23241;BME280;11789;53.482;9.862;2023-04-07T06:36:49;102028.97;;;4.41;60.24
23241;BME280;11789;53.482;9.862;2023-04-07T06:39:15;102028.38;;;4.47;60.30
23241;BME280;11789;53.482;9.862;2023-04-07T06:41:40;102022.06;;;4.60;59.89
23241;BME280;11789;53.482;9.862;2023-04-07T06:44:09;102027.38;;;4.64;58.91
23241;BME280;11789;53.482;9.862;2023-04-07T06:46:37;102026.75;;;4.70;59.03
23241;BME280;11789;53.482;9.862;2023-04-07T06:49:03;102029.69;;;4.79;58.32
23241;BME280;11789;53.482;9.862;2023-04-07T06:51:29;102033.72;;;4.73;58.06
23241;BME280;11789;53.482;9.862;2023-04-07T06:53:54;102036.47;;;4.77;57.99
23241;BME280;11789;53.482;9.862;2023-04-07T06:56:21;102032.41;;;4.82;57.91
23241;BME280;11789;53.482;9.862;2023-04-07T06:58:47;102035.25;;;4.90;57.96
23241;BME280;11789;53.482;9.862;2023-04-07T07:01:12;102036.56;;;5.01;57.63
23241;BME280;11789;53.482;9.862;2023-04-07T07:03:38;102036.84;;;5.07;57.51
23241;BME280;11789;53.482;9.862;2023-04-07T07:06:04;102033.69;;;5.14;56.67
23241;BME280;11789;53.482;9.862;2023-04-07T07:08:29;102037.13;;;5.15;56.25
23241;BME280;11789;53.482;9.862;2023-04-07T07:10:55;102041.62;;;5.20;56.94
23241;BME280;11789;53.482;9.862;2023-04-07T07:13:23;102048.13;;;5.33;56.22
23241;BME280;11789;53.482;9.862;2023-04-07T07:15:50;102037.66;;;5.50;56.21
23241;BME280;11789;53.482;9.862;2023-04-07T07:18:16;102045.34;;;5.72;55.39
23241;BME280;11789;53.482;9.862;2023-04-07T07:20:41;102043.13;;;5.81;54.15
23241;BME280;11789;53.482;9.862;2023-04-07T07:23:07;102040.28;;;5.96;53.95
23241;BME280;11789;53.482;9.862;2023-04-07T07:25:32;102039.84;;;6.08;53.48
23241;BME280;11789;53.482;9.862;2023-04-07T07:27:58;102036.59;;;6.12;52.62
23241;BME280;11789;53.482;9.862;2023-04-07T07:30:24;102035.88;;;6.16;52.84
23241;BME280;11789;53.482;9.862;2023-04-07T07:32:50;102048.25;;;6.26;51.96
23241;BME280;11789;53.482;9.862;2023-04-07T07:35:18;102042.50;;;6.33;51.53
23241;BME280;11789;53.482;9.862;2023-04-07T07:37:43;102049.88;;;6.48;51.43
23241;BME280;11789;53.482;9.862;2023-04-07T07:40:09;102052.72;;;6.56;51.44
23241;BME280;11789;53.482;9.862;2023-04-07T07:42:35;102063.41;;;6.68;50.91
23241;BME280;11789;53.482;9.862;2023-04-07T07:45:01;102057.37;;;6.67;49.88
23241;BME280;11789;53.482;9.862;2023-04-07T07:47:26;102061.84;;;6.73;49.45
23241;BME280;11789;53.482;9.862;2023-04-07T07:49:51;102057.72;;;6.76;48.86
23241;BME280;11789;53.482;9.862;2023-04-07T07:52:17;102067.78;;;6.96;48.93
23241;BME280;11789;53.482;9.862;2023-04-07T07:54:43;102069.69;;;7.01;48.69
23241;BME280;11789;53.482;9.862;2023-04-07T07:57:08;102071.53;;;7.06;48.43
23241;BME280;11789;53.482;9.862;2023-04-07T07:59:34;102075.19;;;7.12;48.49
23241;BME280;11789;53.482;9.862;2023-04-07T08:01:59;102078.09;;;7.23;48.36
23241;BME280;11789;53.482;9.862;2023-04-07T08:04:25;102071.56;;;7.33;48.11
23241;BME280;11789;53.482;9.862;2023-04-07T08:06:50;102083.44;;;7.56;47.59
23241;BME280;11789;53.482;9.862;2023-04-07T08:09:17;102076.88;;;7.66;47.14
23241;BME280;11789;53.482;9.862;2023-04-07T08:11:43;102081.75;;;7.85;46.83
23241;BME280;11789;53.482;9.862;2023-04-07T08:14:08;102085.72;;;8.02;46.04
23241;BME280;11789;53.482;9.862;2023-04-07T08:16:34;102077.28;;;8.08;45.26
23241;BME280;11789;53.482;9.862;2023-04-07T08:18:59;102083.34;;;8.10;45.56
23241;BME280;11789;53.482;9.862;2023-04-07T08:21:25;102077.87;;;8.29;44.64
23241;BME280;11789;53.482;9.862;2023-04-07T08:23:55;102082.53;;;8.41;44.21
23241;BME280;11789;53.482;9.862;2023-04-07T08:26:20;102085.75;;;8.64;45.01
23241;BME280;11789;53.482;9.862;2023-04-07T08:28:47;102073.75;;;8.66;44.05
23241;BME280;11789;53.482;9.862;2023-04-07T08:31:13;102085.28;;;8.79;43.80
23241;BME280;11789;53.482;9.862;2023-04-07T08:33:38;102079.56;;;8.91;43.83
23241;BME280;11789;53.482;9.862;2023-04-07T08:36:04;102090.22;;;9.04;44.34
23241;BME280;11789;53.482;9.862;2023-04-07T08:38:29;102085.81;;;9.00;43.73
23241;BME280;11789;53.482;9.862;2023-04-07T08:41:03;102084.22;;;9.05;44.08
23241;BME280;11789;53.482;9.862;2023-04-07T08:43:34;102091.44;;;9.19;43.69
23241;BME280;11789;53.482;9.862;2023-04-07T08:46:01;102090.78;;;9.27;43.52
23241;BME280;11789;53.482;9.862;2023-04-07T08:48:29;102094.87;;;9.18;41.88
23241;BME280;11789;53.482;9.862;2023-04-07T08:50:59;102091.31;;;9.13;42.12
23241;BME280;11789;53.482;9.862;2023-04-07T08:53:35;102096.00;;;8.94;41.87
23241;BME280;11789;53.482;9.862;2023-04-07T08:56:03;102100.03;;;8.84;42.17
23241;BME280;11789;53.482;9.862;2023-04-07T08:58:30;102094.72;;;8.78;42.27
23241;BME280;11789;53.482;9.862;2023-04-07T09:00:56;102098.72;;;9.00;42.10
23241;BME280;11789;53.482;9.862;2023-04-07T09:03:22;102100.81;;;9.15;42.07
23241;BME280;11789;53.482;9.862;2023-04-07T09:05:49;102097.63;;;9.25;41.57
23241;BME280;11789;53.482;9.862;2023-04-07T09:08:15;102093.66;;;9.38;40.61
23241;BME280;11789;53.482;9.862;2023-04-07T09:10:41;102099.72;;;9.42;40.52
23241;BME280;11789;53.482;9.862;2023-04-07T09:13:06;102101.56;;;9.47;40.59
23241;BME280;11789;53.482;9.862;2023-04-07T09:15:32;102109.88;;;9.34;40.08
23241;BME280;11789;53.482;9.862;2023-04-07T09:17:58;102095.25;;;9.33;40.16
23241;BME280;11789;53.482;9.862;2023-04-07T09:20:23;102094.97;;;9.58;40.24
23241;BME280;11789;53.482;9.862;2023-04-07T09:22:49;102094.41;;;9.72;39.79
23241;BME280;11789;53.482;9.862;2023-04-07T09:25:17;102092.41;;;9.58;39.87
23241;BME280;11789;53.482;9.862;2023-04-07T09:28:00;102098.53;;;9.64;39.94
23241;BME280;11789;53.482;9.862;2023-04-07T09:30:28;102089.38;;;9.78;40.10
23241;BME280;11789;53.482;9.862;2023-04-07T09:32:53;102092.88;;;9.80;39.68
23241;BME280;11789;53.482;9.862;2023-04-07T09:35:19;102097.16;;;9.79;40.17
23241;BME280;11789;53.482;9.862;2023-04-07T09:38:01;102092.78;;;9.77;39.17
23241;BME280;11789;53.482;9.862;2023-04-07T09:40:27;102080.94;;;9.85;39.75
23241;BME280;11789;53.482;9.862;2023-04-07T09:42:52;102091.69;;;10.05;39.61
23241;BME280;11789;53.482;9.862;2023-04-07T09:45:25;102087.31;;;10.02;39.12
23241;BME280;11789;53.482;9.862;2023-04-07T09:47:52;102085.75;;;10.09;39.43
23241;BME280;11789;53.482;9.862;2023-04-07T09:50:30;102084.69;;;9.99;38.84
23241;BME280;11789;53.482;9.862;2023-04-07T09:52:57;102082.97;;;10.00;39.33
23241;BME280;11789;53.482;9.862;2023-04-07T09:55:23;102078.22;;;10.20;38.51
23241;BME280;11789;53.482;9.862;2023-04-07T09:57:52;102071.38;;;10.23;37.97
23241;BME280;11789;53.482;9.862;2023-04-07T10:00:19;102069.44;;;10.13;37.54
23241;BME280;11789;53.482;9.862;2023-04-07T10:02:45;102080.72;;;10.15;37.53
23241;BME280;11789;53.482;9.862;2023-04-07T10:05:12;102087.19;;;9.96;37.80
23241;BME280;11789;53.482;9.862;2023-04-07T10:07:38;102083.53;;;9.86;38.17
23241;BME280;11789;53.482;9.862;2023-04-07T10:10:04;102084.78;;;10.04;38.51
23241;BME280;11789;53.482;9.862;2023-04-07T10:12:34;102078.06;;;10.12;38.23
23241;BME280;11789;53.482;9.862;2023-04-07T10:15:01;102091.75;;;10.08;38.06
23241;BME280;11789;53.482;9.862;2023-04-07T10:17:27;102099.28;;;9.97;37.39
23241;BME280;11789;53.482;9.862;2023-04-07T10:19:53;102085.38;;;9.92;37.90
23241;BME280;11789;53.482;9.862;2023-04-07T10:22:21;102088.94;;;9.97;37.76
23241;BME280;11789;53.482;9.862;2023-04-07T10:25:03;102082.75;;;9.89;38.06
23241;BME280;11789;53.482;9.862;2023-04-07T10:27:52;102084.19;;;10.17;38.75
23241;BME280;11789;53.482;9.862;2023-04-07T10:30:30;102091.59;;;10.41;37.96
23241;BME280;11789;53.482;9.862;2023-04-07T10:32:55;102086.22;;;10.30;36.68
23241;BME280;11789;53.482;9.862;2023-04-07T10:35:22;102087.94;;;10.30;37.24
23241;BME280;11789;53.482;9.862;2023-04-07T10:40:35;102082.56;;;10.22;37.29
23241;BME280;11789;53.482;9.862;2023-04-07T10:43:01;102091.34;;;10.29;36.89
23241;BME280;11789;53.482;9.862;2023-04-07T10:48:12;102089.97;;;10.05;36.92
23241;BME280;11789;53.482;9.862;2023-04-07T10:50:38;102090.09;;;10.11;37.61
23241;BME280;11789;53.482;9.862;2023-04-07T10:53:14;102086.12;;;10.26;36.89
23241;BME280;11789;53.482;9.862;2023-04-07T10:58:22;102087.00;;;10.28;36.05
23241;BME280;11789;53.482;9.862;2023-04-07T11:03:27;102098.50;;;10.42;35.33
23241;BME280;11789;53.482;9.862;2023-04-07T11:08:34;102091.81;;;10.53;36.07
23241;BME280;11789;53.482;9.862;2023-04-07T11:11:00;102088.34;;;10.51;35.30
23241;BME280;11789;53.482;9.862;2023-04-07T11:13:26;102102.81;;;10.43;34.62
23241;BME280;11789;53.482;9.862;2023-04-07T11:15:52;102087.97;;;10.33;35.12
23241;BME280;11789;53.482;9.862;2023-04-07T11:18:21;102089.91;;;10.43;34.63
23241;BME280;11789;53.482;9.862;2023-04-07T11:20:52;102082.28;;;10.49;35.48
23241;BME280;11789;53.482;9.862;2023-04-07T11:23:21;102084.06;;;10.53;35.61
23241;BME280;11789;53.482;9.862;2023-04-07T11:25:49;102085.84;;;10.54;35.46
23241;BME280;11789;53.482;9.862;2023-04-07T11:28:16;102073.87;;;10.59;35.56
23241;BME280;11789;53.482;9.862;2023-04-07T11:30:47;102083.25;;;10.56;35.12
23241;BME280;11789;53.482;9.862;2023-04-07T11:33:15;102073.00;;;10.60;35.11
23241;BME280;11789;53.482;9.862;2023-04-07T11:35:53;102083.63;;;10.76;35.89
23241;BME280;11789;53.482;9.862;2023-04-07T11:38:21;102088.75;;;10.74;34.78
23241;BME280;11789;53.482;9.862;2023-04-07T11:40:47;102082.72;;;10.74;35.24
23241;BME280;11789;53.482;9.862;2023-04-07T11:43:26;102081.22;;;10.85;36.10
23241;BME280;11789;53.482;9.862;2023-04-07T11:46:13;102091.66;;;10.91;35.56
23241;BME280;11789;53.482;9.862;2023-04-07T11:48:40;102081.25;;;10.88;35.47
23241;BME280;11789;53.482;9.862;2023-04-07T11:51:14;102088.16;;;10.87;35.58
23241;BME280;11789;53.482;9.862;2023-04-07T11:53:40;102087.37;;;10.91;36.61
23241;BME280;11789;53.482;9.862;2023-04-07T11:56:08;102084.78;;;10.91;36.06
23241;BME280;11789;53.482;9.862;2023-04-07T11:58:37;102089.12;;;10.94;36.33
23241;BME280;11789;53.482;9.862;2023-04-07T12:01:05;102083.12;;;10.95;35.81
23241;BME280;11789;53.482;9.862;2023-04-07T12:03:34;102086.66;;;11.00;35.30
23241;BME280;11789;53.482;9.862;2023-04-07T12:06:03;102083.31;;;11.07;34.75
23241;BME280;11789;53.482;9.862;2023-04-07T12:11:04;102093.91;;;11.23;35.00
23241;BME280;11789;53.482;9.862;2023-04-07T12:13:29;102100.03;;;11.28;35.17
23241;BME280;11789;53.482;9.862;2023-04-07T12:15:57;102083.50;;;11.18;34.46
23241;BME280;11789;53.482;9.862;2023-04-07T12:18:23;102087.87;;;11.22;35.51
23241;BME280;11789;53.482;9.862;2023-04-07T12:20:49;102094.87;;;11.28;35.23
23241;BME280;11789;53.482;9.862;2023-04-07T12:23:15;102094.87;;;11.29;35.91
23241;BME280;11789;53.482;9.862;2023-04-07T12:25:40;102091.66;;;11.42;35.87
23241;BME280;11789;53.482;9.862;2023-04-07T12:28:06;102094.16;;;11.38;34.89
23241;BME280;11789;53.482;9.862;2023-04-07T12:30:31;102093.28;;;11.36;35.72
23241;BME280;11789;53.482;9.862;2023-04-07T12:32:57;102102.03;;;11.44;35.90
23241;BME280;11789;53.482;9.862;2023-04-07T12:35:23;102098.37;;;11.31;35.84
23241;BME280;11789;53.482;9.862;2023-04-07T12:37:48;102093.91;;;11.23;36.24
23241;BME280;11789;53.482;9.862;2023-04-07T12:40:14;102092.09;;;11.15;35.47
23241;BME280;11789;53.482;9.862;2023-04-07T12:42:40;102089.34;;;11.08;36.06
23241;BME280;11789;53.482;9.862;2023-04-07T12:45:06;102100.75;;;11.17;36.34
23241;BME280;11789;53.482;9.862;2023-04-07T12:47:32;102097.53;;;11.31;36.51
23241;BME280;11789;53.482;9.862;2023-04-07T12:49:58;102103.59;;;11.34;36.21
23241;BME280;11789;53.482;9.862;2023-04-07T12:52:24;102096.59;;;11.29;36.27
23241;BME280;11789;53.482;9.862;2023-04-07T12:54:50;102102.69;;;11.31;36.30
23241;BME280;11789;53.482;9.862;2023-04-07T12:57:15;102094.09;;;11.35;35.64
23241;BME280;11789;53.482;9.862;2023-04-07T12:59:40;102100.28;;;11.41;35.14
23241;BME280;11789;53.482;9.862;2023-04-07T13:02:07;102108.69;;;11.28;34.13
23241;BME280;11789;53.482;9.862;2023-04-07T13:04:32;102099.78;;;11.12;35.00
23241;BME280;11789;53.482;9.862;2023-04-07T13:06:59;102094.63;;;11.14;35.94
23241;BME280;11789;53.482;9.862;2023-04-07T13:09:27;102089.53;;;11.18;36.77
23241;BME280;11789;53.482;9.862;2023-04-07T13:11:52;102094.72;;;11.18;36.84
23241;BME280;11789;53.482;9.862;2023-04-07T13:14:17;102099.09;;;11.23;35.75
23241;BME280;11789;53.482;9.862;2023-04-07T13:16:43;102094.63;;;11.14;34.11
23241;BME280;11789;53.482;9.862;2023-04-07T13:19:09;102097.38;;;11.22;35.98
23241;BME280;11789;53.482;9.862;2023-04-07T13:21:34;102099.97;;;11.23;35.60
23241;BME280;11789;53.482;9.862;2023-04-07T13:24:00;102100.66;;;11.11;35.43
23241;BME280;11789;53.482;9.862;2023-04-07T13:26:25;102093.81;;;11.16;36.26